Terminal Aerodrome Forecast
Issued by NWS North Platte, NE

Home | Current Version | Previous Version | Graphics & Text | Print | Product List | Glossary On
Versions: 1 2 3 4 5 6 7 8 9 10 11 12 13 14 15 16
000
FTUS43 KLBF 210520
TAFVTN
TAF
KVTN 210520Z 2106/2206 31006KT P6SM BKN120
     FM210700 32007KT P6SM BKN100
     FM210900 34011KT P6SM VCSH OVC070
     FM211200 34012G19KT P6SM OVC100
     FM211400 34014G23KT P6SM SCT200
     FM212100 32011KT P6SM FEW250
     FM212300 34006KT P6SM FEW250
     FM220200 00000KT P6SM FEW250=

USA.gov is the U.S. government's official web portal to all federal, state and local government web resources and services.